createdAt,value
2023-03-16T00:00:13.797Z,8.40
2023-03-16T00:02:42.470Z,7.50
2023-03-16T00:05:13.888Z,6.77
2023-03-16T00:07:42.994Z,6.77
2023-03-16T00:10:13.679Z,5.50
2023-03-16T00:12:43.843Z,5.73
2023-03-16T00:15:12.817Z,5.93
2023-03-16T00:17:41.313Z,6.13
2023-03-16T00:20:13.429Z,5.57
2023-03-16T00:22:41.947Z,6.83
2023-03-16T00:25:11.321Z,6.90
2023-03-16T00:27:40.099Z,6.00
2023-03-16T00:30:10.383Z,6.80
2023-03-16T00:32:39.823Z,7.50
2023-03-16T00:35:09.655Z,7.30
2023-03-16T00:37:40.017Z,6.30
2023-03-16T00:40:13.680Z,6.07
2023-03-16T00:42:41.972Z,5.77
2023-03-16T00:45:11.977Z,6.13
2023-03-16T00:47:40.134Z,6.20
2023-03-16T00:50:09.450Z,5.27
2023-03-16T00:52:38.979Z,5.80
2023-03-16T00:55:08.478Z,5.87
2023-03-16T00:57:36.743Z,6.13
2023-03-16T01:00:14.837Z,5.60
2023-03-16T01:02:45.193Z,5.57
2023-03-16T01:05:14.081Z,5.43
2023-03-16T01:07:45.282Z,5.40
2023-03-16T01:10:14.759Z,6.10
2023-03-16T01:12:45.421Z,7.07
2023-03-16T01:15:13.681Z,6.50
2023-03-16T01:17:42.236Z,7.93
2023-03-16T01:20:14.945Z,6.33
2023-03-16T01:22:44.587Z,5.17
2023-03-16T01:25:14.640Z,4.90
2023-03-16T01:27:43.659Z,5.57
2023-03-16T01:30:13.786Z,5.70
2023-03-16T01:32:43.359Z,4.53
2023-03-16T01:35:14.547Z,5.50
2023-03-16T01:37:44.319Z,5.10
2023-03-16T01:40:18.801Z,5.53
2023-03-16T01:42:48.667Z,5.10
2023-03-16T01:46:18.231Z,5.50
2023-03-16T01:49:08.391Z,5.50
2023-03-16T01:51:43.985Z,5.40
2023-03-16T01:54:23.005Z,6.30
2023-03-16T01:56:58.091Z,6.30
2023-03-16T01:59:31.510Z,5.50
2023-03-16T02:02:00.278Z,6.63
2023-03-16T02:04:45.982Z,6.43
2023-03-16T02:07:19.578Z,6.10
2023-03-16T02:09:53.297Z,5.27
2023-03-16T02:12:22.749Z,5.20
2023-03-16T02:14:55.340Z,5.03
2023-03-16T02:17:27.701Z,4.50
2023-03-16T02:20:13.654Z,6.20
2023-03-16T02:22:47.891Z,4.83
2023-03-16T02:25:20.310Z,5.00
2023-03-16T02:27:59.514Z,5.70
2023-03-16T02:30:30.497Z,6.13
2023-03-16T02:33:05.147Z,5.07
2023-03-16T02:35:33.647Z,5.17
2023-03-16T02:38:03.289Z,6.60
2023-03-16T02:40:38.120Z,5.77
2023-03-16T02:43:16.797Z,6.43
2023-03-16T02:45:58.538Z,5.23
2023-03-16T02:48:33.249Z,6.57
2023-03-16T02:51:01.514Z,6.80
2023-03-16T02:53:29.713Z,8.20
2023-03-16T02:55:59.350Z,6.90
2023-03-16T02:58:27.645Z,6.53
2023-03-16T03:00:57.735Z,7.57
2023-03-16T03:03:26.249Z,6.40
2023-03-16T03:05:54.523Z,6.43
2023-03-16T03:08:23.560Z,5.43
2023-03-16T03:10:52.434Z,5.80
2023-03-16T03:13:20.657Z,6.70
2023-03-16T03:15:48.861Z,6.73
2023-03-16T03:18:18.488Z,7.27
2023-03-16T03:20:46.792Z,6.07
2023-03-16T03:23:16.294Z,6.87
2023-03-16T03:25:45.353Z,5.50
2023-03-16T03:28:15.250Z,7.20
2023-03-16T03:30:43.837Z,6.10
2023-03-16T03:33:12.952Z,6.30
2023-03-16T03:35:43.010Z,6.90
2023-03-16T03:38:11.668Z,7.70
2023-03-16T03:40:40.959Z,5.90
2023-03-16T03:43:09.165Z,6.30
2023-03-16T03:45:42.190Z,6.73
2023-03-16T03:48:10.844Z,6.83
2023-03-16T03:50:40.642Z,7.47
2023-03-16T03:53:36.236Z,7.43
2023-03-16T03:56:16.233Z,6.50
2023-03-16T03:58:44.474Z,6.83
2023-03-16T04:01:16.388Z,6.73
2023-03-16T04:03:45.993Z,6.97
2023-03-16T04:06:16.852Z,8.17
2023-03-16T04:08:46.412Z,8.37
2023-03-16T04:11:19.466Z,8.10
2023-03-16T04:13:47.895Z,9.30
2023-03-16T04:16:16.242Z,7.83
2023-03-16T04:18:46.197Z,7.93
2023-03-16T04:21:17.757Z,7.70
2023-03-16T04:23:54.246Z,7.70
2023-03-16T04:26:26.412Z,7.27
2023-03-16T04:28:55.285Z,6.73
2023-03-16T04:31:23.990Z,6.70
2023-03-16T04:33:54.490Z,7.43
2023-03-16T04:36:24.471Z,7.43
2023-03-16T04:38:55.655Z,7.27
2023-03-16T04:41:24.782Z,7.60
2023-03-16T04:43:59.885Z,7.27
2023-03-16T04:46:29.549Z,7.03
2023-03-16T04:48:59.945Z,7.30
2023-03-16T04:51:30.238Z,6.93
2023-03-16T04:54:08.140Z,6.80
2023-03-16T04:56:41.532Z,6.30
2023-03-16T04:59:17.863Z,6.80
2023-03-16T05:01:51.674Z,6.37
2023-03-16T05:04:21.911Z,7.30
2023-03-16T05:06:50.549Z,6.67
2023-03-16T05:09:24.217Z,7.63
2023-03-16T05:11:52.610Z,7.00
2023-03-16T05:14:20.896Z,8.20
2023-03-16T05:17:15.587Z,7.37
2023-03-16T05:19:46.152Z,6.47
2023-03-16T05:22:15.910Z,6.90
2023-03-16T05:25:03.878Z,6.60
2023-03-16T05:27:34.216Z,6.50
2023-03-16T05:30:03.860Z,6.90
2023-03-16T05:32:33.706Z,6.63
2023-03-16T05:35:03.170Z,6.77
2023-03-16T05:37:31.910Z,6.77
2023-03-16T05:40:01.587Z,6.60
2023-03-16T05:42:30.072Z,6.43
2023-03-16T05:45:02.550Z,7.20
2023-03-16T05:47:38.284Z,7.00
2023-03-16T05:50:11.432Z,7.00
2023-03-16T05:52:44.548Z,5.77
2023-03-16T05:55:20.843Z,6.90
2023-03-16T05:57:55.457Z,5.93
2023-03-16T06:00:27.604Z,7.00
2023-03-16T06:03:08.686Z,6.90
2023-03-16T06:05:39.403Z,7.40
2023-03-16T06:08:09.167Z,6.40
2023-03-16T06:10:40.218Z,6.10
2023-03-16T06:13:08.724Z,6.57
2023-03-16T06:15:38.013Z,6.57
2023-03-16T06:18:06.458Z,5.40
2023-03-16T06:20:35.491Z,6.70
2023-03-16T06:23:04.435Z,5.67
2023-03-16T06:25:33.260Z,6.60
2023-03-16T06:28:03.070Z,6.10
2023-03-16T06:30:31.391Z,5.83
2023-03-16T06:33:00.302Z,6.83
2023-03-16T06:35:28.646Z,6.83
2023-03-16T06:38:18.060Z,5.60
2023-03-16T06:40:56.383Z,5.40
2023-03-16T06:43:26.680Z,5.60
2023-03-16T06:45:55.535Z,5.97
2023-03-16T06:48:24.532Z,4.97
2023-03-16T06:50:53.079Z,5.47
2023-03-16T06:53:27.104Z,5.70
2023-03-16T06:55:57.112Z,4.80
2023-03-16T06:58:29.004Z,5.47
2023-03-16T07:00:57.290Z,5.60
2023-03-16T07:03:25.580Z,6.70
2023-03-16T07:05:59.766Z,6.00
2023-03-16T07:08:28.126Z,6.80
2023-03-16T07:10:57.763Z,5.47
2023-03-16T07:13:25.999Z,7.27
2023-03-16T07:15:55.579Z,6.33
2023-03-16T07:18:26.143Z,6.23
2023-03-16T07:20:55.547Z,7.20
2023-03-16T07:23:26.824Z,6.97
2023-03-16T07:26:00.744Z,7.50
2023-03-16T07:28:29.635Z,6.80
2023-03-16T07:31:04.191Z,6.47
2023-03-16T07:33:38.671Z,6.80
2023-03-16T07:36:10.801Z,7.03
2023-03-16T07:38:43.858Z,7.10
2023-03-16T07:41:14.029Z,7.40
2023-03-16T07:43:44.012Z,7.50
2023-03-16T07:46:13.841Z,7.23
2023-03-16T07:48:43.615Z,6.90
2023-03-16T07:51:14.691Z,6.67
2023-03-16T07:53:46.820Z,6.33
2023-03-16T07:56:33.722Z,7.20
2023-03-16T07:59:13.635Z,6.70
2023-03-16T08:01:46.280Z,6.90
2023-03-16T08:04:14.687Z,6.73
2023-03-16T08:06:43.350Z,6.27
2023-03-16T08:09:11.785Z,6.20
2023-03-16T08:11:42.859Z,6.20
2023-03-16T08:14:11.725Z,6.50
2023-03-16T08:16:59.454Z,6.33
2023-03-16T08:19:29.092Z,6.37
2023-03-16T08:22:02.086Z,6.60
2023-03-16T08:24:39.862Z,6.30
2023-03-16T08:27:12.011Z,5.33
2023-03-16T08:29:43.262Z,5.23
2023-03-16T08:32:18.278Z,6.03
2023-03-16T08:34:48.353Z,6.17
2023-03-16T08:37:17.350Z,5.33
2023-03-16T08:39:46.958Z,5.53
2023-03-16T08:42:17.619Z,5.20
2023-03-16T08:44:50.739Z,5.23
2023-03-16T08:47:20.269Z,4.40
2023-03-16T08:49:49.163Z,5.83
2023-03-16T08:52:18.193Z,4.43
2023-03-16T08:55:01.418Z,5.00
2023-03-16T08:57:30.031Z,5.00
2023-03-16T08:59:58.248Z,4.43
2023-03-16T09:02:27.983Z,5.27
2023-03-16T09:04:56.288Z,5.33
2023-03-16T09:07:24.841Z,4.40
2023-03-16T09:09:53.018Z,4.90
2023-03-16T09:12:22.208Z,5.13
2023-03-16T09:14:50.340Z,3.87
2023-03-16T09:17:18.618Z,4.80
2023-03-16T09:19:51.668Z,3.93
2023-03-16T09:22:20.534Z,4.90
2023-03-16T09:24:49.595Z,3.70
2023-03-16T09:27:18.622Z,3.27
2023-03-16T09:29:47.423Z,3.93
2023-03-16T09:32:16.219Z,3.33
2023-03-16T09:34:44.830Z,3.60
2023-03-16T09:37:14.655Z,4.20
2023-03-16T09:39:43.318Z,3.60
2023-03-16T09:42:19.247Z,3.97
2023-03-16T09:45:00.728Z,3.50
2023-03-16T09:47:32.805Z,3.40
2023-03-16T09:50:06.168Z,4.23
2023-03-16T09:52:45.700Z,3.63
2023-03-16T09:55:27.235Z,4.27
2023-03-16T09:57:56.194Z,3.57
2023-03-16T10:00:28.534Z,3.33
2023-03-16T10:03:10.419Z,3.30
2023-03-16T10:05:39.563Z,3.33
2023-03-16T10:08:18.499Z,3.00
2023-03-16T10:11:06.303Z,4.00
2023-03-16T10:13:43.804Z,3.30
2023-03-16T10:16:19.373Z,3.13
2023-03-16T10:18:52.186Z,3.17
2023-03-16T10:21:22.794Z,2.77
2023-03-16T10:23:54.051Z,3.30
2023-03-16T10:26:27.579Z,2.93
2023-03-16T10:28:55.721Z,3.07
2023-03-16T10:31:24.955Z,2.77
2023-03-16T10:33:59.427Z,3.30
2023-03-16T10:36:33.560Z,3.20
2023-03-16T10:39:06.968Z,3.00
2023-03-16T10:41:37.833Z,2.60
2023-03-16T10:44:13.755Z,2.83
2023-03-16T10:46:48.119Z,3.10
2023-03-16T10:49:25.745Z,3.00
2023-03-16T10:52:00.461Z,3.07
2023-03-16T10:54:35.862Z,2.67
2023-03-16T10:57:16.679Z,2.63
2023-03-16T10:59:49.735Z,2.60
2023-03-16T11:02:22.653Z,2.73
2023-03-16T11:04:51.079Z,2.30
2023-03-16T11:07:24.075Z,2.43
2023-03-16T11:09:55.899Z,2.17
2023-03-16T11:12:28.764Z,2.40
2023-03-16T11:15:09.397Z,2.63
2023-03-16T11:17:47.024Z,2.03
2023-03-16T11:20:19.620Z,2.60
2023-03-16T11:22:49.479Z,2.67
2023-03-16T11:25:28.952Z,2.60
2023-03-16T11:28:13.039Z,2.30
2023-03-16T11:30:44.741Z,2.50
2023-03-16T11:33:15.761Z,2.40
2023-03-16T11:35:58.800Z,2.57
2023-03-16T11:38:36.107Z,2.53
2023-03-16T11:41:11.412Z,2.67
2023-03-16T11:43:54.751Z,2.30
2023-03-16T11:46:26.489Z,2.30
2023-03-16T11:49:50.512Z,1.50
2023-03-16T11:52:34.062Z,1.70
2023-03-16T11:55:17.798Z,2.20
2023-03-16T11:57:59.177Z,2.07
2023-03-16T12:00:37.322Z,2.60
2023-03-16T12:04:14.088Z,1.80
2023-03-16T12:07:03.226Z,1.60
2023-03-16T12:10:20.343Z,2.17
2023-03-16T12:13:30.868Z,2.70
2023-03-16T12:16:05.672Z,2.00
2023-03-16T12:18:44.618Z,1.90
2023-03-16T12:21:17.188Z,1.90
2023-03-16T12:23:53.476Z,1.70
2023-03-16T12:26:26.452Z,1.50
2023-03-16T12:28:57.025Z,2.20
2023-03-16T12:31:37.512Z,2.07
2023-03-16T12:34:20.598Z,1.80
2023-03-16T12:37:06.522Z,1.30
2023-03-16T12:40:10.623Z,1.80
2023-03-16T12:43:27.467Z,1.70
2023-03-16T12:46:06.076Z,1.20
2023-03-16T12:48:39.804Z,1.30
2023-03-16T12:51:08.213Z,0.90
2023-03-16T12:53:46.695Z,1.37
2023-03-16T12:56:17.916Z,1.00
2023-03-16T12:58:49.251Z,1.10
2023-03-16T13:01:21.816Z,1.40
2023-03-16T13:03:52.076Z,1.40
2023-03-16T13:06:24.859Z,1.33
2023-03-16T13:08:59.724Z,1.13
2023-03-16T13:11:28.995Z,1.90
2023-03-16T13:14:11.264Z,1.50
2023-03-16T13:16:41.350Z,1.30
2023-03-16T13:19:27.543Z,1.50
2023-03-16T13:22:18.535Z,1.27
2023-03-16T13:24:54.938Z,1.53
2023-03-16T13:27:28.320Z,1.40
2023-03-16T13:29:59.092Z,1.07
2023-03-16T13:32:34.980Z,1.60
2023-03-16T13:35:09.838Z,1.30
2023-03-16T13:37:39.739Z,1.60
2023-03-16T13:40:21.361Z,1.70
2023-03-16T13:42:53.296Z,1.17
2023-03-16T13:45:25.055Z,1.60
2023-03-16T13:47:54.950Z,1.70
2023-03-16T13:50:23.560Z,1.40
2023-03-16T13:53:00.571Z,1.33
2023-03-16T13:55:33.979Z,1.20
2023-03-16T13:58:02.790Z,1.30
2023-03-16T14:00:37.008Z,1.37
2023-03-16T14:03:17.714Z,1.43
2023-03-16T14:05:47.494Z,1.80
2023-03-16T14:08:21.151Z,1.60
2023-03-16T14:10:49.964Z,1.50
2023-03-16T14:13:33.411Z,2.07
2023-03-16T14:16:04.865Z,1.70
2023-03-16T14:18:38.606Z,2.30
2023-03-16T14:21:10.300Z,2.03
2023-03-16T14:23:42.386Z,2.33
2023-03-16T14:26:15.347Z,1.87
2023-03-16T14:28:57.326Z,2.17
2023-03-16T14:31:35.476Z,2.20
2023-03-16T14:34:08.867Z,2.47
2023-03-16T14:36:39.571Z,2.40
2023-03-16T14:39:17.027Z,3.20
2023-03-16T14:41:46.202Z,3.07
2023-03-16T14:44:22.877Z,2.80
2023-03-16T14:46:51.911Z,3.27
2023-03-16T14:49:29.101Z,3.40
2023-03-16T14:52:02.374Z,3.73
2023-03-16T14:54:31.238Z,3.20
2023-03-16T14:57:03.811Z,3.47
2023-03-16T14:59:32.223Z,3.40
2023-03-16T15:02:02.232Z,3.13
2023-03-16T15:04:35.643Z,3.80
2023-03-16T15:07:23.978Z,3.40
2023-03-16T15:09:55.068Z,3.20
2023-03-16T15:12:26.484Z,2.77
2023-03-16T15:15:12.361Z,3.70
2023-03-16T15:17:40.585Z,3.60
2023-03-16T15:20:13.100Z,3.40
2023-03-16T15:22:41.810Z,3.13
2023-03-16T15:25:27.211Z,3.53
2023-03-16T15:27:55.852Z,3.23
2023-03-16T15:30:26.751Z,3.63
2023-03-16T15:32:55.409Z,3.87
2023-03-16T15:35:24.971Z,3.40
2023-03-16T15:37:53.562Z,3.20
2023-03-16T15:40:25.197Z,3.73
2023-03-16T15:42:54.010Z,3.20
2023-03-16T15:45:24.090Z,3.53
2023-03-16T15:47:54.411Z,3.23
2023-03-16T15:50:25.670Z,2.93
2023-03-16T15:53:04.720Z,3.80
2023-03-16T15:55:37.753Z,2.93
2023-03-16T15:58:07.467Z,3.37
2023-03-16T16:00:38.326Z,2.83
2023-03-16T16:03:08.214Z,3.20
2023-03-16T16:05:37.784Z,3.03
2023-03-16T16:08:06.448Z,2.70
2023-03-16T16:10:36.145Z,3.20
2023-03-16T16:13:04.512Z,2.30
2023-03-16T16:15:37.472Z,2.60
2023-03-16T16:18:31.798Z,2.30
2023-03-16T16:21:03.468Z,2.87
2023-03-16T16:23:32.620Z,2.70
2023-03-16T16:26:04.817Z,2.20
2023-03-16T16:28:34.466Z,2.80
2023-03-16T16:31:03.378Z,2.87
2023-03-16T16:33:34.297Z,2.20
2023-03-16T16:36:07.318Z,2.60
2023-03-16T16:38:35.594Z,2.53
2023-03-16T16:41:09.066Z,2.60
2023-03-16T16:43:41.171Z,3.60
2023-03-16T16:46:16.494Z,2.27
2023-03-16T16:48:47.470Z,2.40
2023-03-16T16:51:19.745Z,2.10
2023-03-16T16:53:48.873Z,2.20
2023-03-16T16:56:23.005Z,1.93
2023-03-16T16:58:51.411Z,2.13
2023-03-16T17:01:27.371Z,2.00
2023-03-16T17:03:55.632Z,3.10
2023-03-16T17:06:25.547Z,1.60
2023-03-16T17:08:55.064Z,1.87
2023-03-16T17:11:26.243Z,3.00
2023-03-16T17:13:56.903Z,2.00
2023-03-16T17:16:27.803Z,3.10
2023-03-16T17:18:56.498Z,2.50
2023-03-16T17:21:31.016Z,2.27
2023-03-16T17:24:00.255Z,2.53
2023-03-16T17:26:32.822Z,2.30
2023-03-16T17:29:03.882Z,2.50
2023-03-16T17:31:36.607Z,2.53
2023-03-16T17:34:16.657Z,2.57
2023-03-16T17:36:46.823Z,3.10
2023-03-16T17:39:20.899Z,2.90
2023-03-16T17:41:50.259Z,4.43
2023-03-16T17:44:20.091Z,4.60
2023-03-16T17:46:49.338Z,4.83
2023-03-16T17:49:20.511Z,3.00
2023-03-16T17:51:50.074Z,3.53
2023-03-16T17:54:18.702Z,3.40
2023-03-16T17:56:48.811Z,3.27
2023-03-16T17:59:20.285Z,3.00
2023-03-16T18:01:48.899Z,2.90
2023-03-16T18:04:18.557Z,2.77
2023-03-16T18:06:48.112Z,4.10
2023-03-16T18:09:19.519Z,2.80
2023-03-16T18:11:50.402Z,2.40
2023-03-16T18:14:34.722Z,3.17
2023-03-16T18:17:03.534Z,3.40
2023-03-16T18:19:33.638Z,3.17
2023-03-16T18:22:01.853Z,2.30
2023-03-16T18:24:31.702Z,3.50
2023-03-16T18:27:00.137Z,3.53
2023-03-16T18:29:28.635Z,3.20
2023-03-16T18:31:59.247Z,3.13
2023-03-16T18:34:30.868Z,3.20
2023-03-16T18:37:00.729Z,3.00
2023-03-16T18:39:28.919Z,3.10
2023-03-16T18:41:58.751Z,4.07
2023-03-16T18:44:28.154Z,3.07
2023-03-16T18:47:03.329Z,2.73
2023-03-16T18:49:35.718Z,3.37
2023-03-16T18:52:05.315Z,3.50
2023-03-16T18:54:36.326Z,3.30
2023-03-16T18:57:16.381Z,3.00
2023-03-16T18:59:44.524Z,3.00
2023-03-16T19:02:29.375Z,3.27
2023-03-16T19:05:00.765Z,2.90
2023-03-16T19:07:35.020Z,3.53
2023-03-16T19:10:09.594Z,3.80
2023-03-16T19:12:39.217Z,3.10
2023-03-16T19:15:20.839Z,3.50
2023-03-16T19:17:49.647Z,3.17
2023-03-16T19:20:21.259Z,3.57
2023-03-16T19:22:51.931Z,3.87
2023-03-16T19:25:25.696Z,4.00
2023-03-16T19:27:55.716Z,4.10
2023-03-16T19:30:28.081Z,3.17
2023-03-16T19:32:57.728Z,3.50
2023-03-16T19:35:44.363Z,3.30
2023-03-16T19:38:17.101Z,3.17
2023-03-16T19:40:45.941Z,3.70
2023-03-16T19:43:19.866Z,3.57
2023-03-16T19:45:50.089Z,4.40
2023-03-16T19:48:22.570Z,4.20
2023-03-16T19:50:52.018Z,4.17
2023-03-16T19:53:23.084Z,4.50
2023-03-16T19:55:53.610Z,3.87
2023-03-16T19:58:31.406Z,3.73
2023-03-16T20:01:01.134Z,3.73
2023-03-16T20:03:29.759Z,3.93
2023-03-16T20:05:58.099Z,3.03
2023-03-16T20:08:28.632Z,3.40
2023-03-16T20:11:04.426Z,4.10
2023-03-16T20:13:35.426Z,3.40
2023-03-16T20:16:04.396Z,4.10
2023-03-16T20:18:32.927Z,3.80
2023-03-16T20:21:01.179Z,3.30
2023-03-16T20:23:31.223Z,3.60
2023-03-16T20:26:03.032Z,3.73
2023-03-16T20:28:36.755Z,4.73
2023-03-16T20:31:08.390Z,5.00
2023-03-16T20:33:36.753Z,3.77
2023-03-16T20:36:05.914Z,3.50
2023-03-16T20:38:34.099Z,4.47
2023-03-16T20:41:02.669Z,4.10
2023-03-16T20:43:33.814Z,4.10
2023-03-16T20:46:04.715Z,4.53
2023-03-16T20:48:34.130Z,4.30
2023-03-16T20:51:02.743Z,3.10
2023-03-16T20:53:31.230Z,3.80
2023-03-16T20:55:59.562Z,3.57
2023-03-16T20:58:29.171Z,3.27
2023-03-16T21:01:00.885Z,3.97
2023-03-16T21:03:33.361Z,3.27
2023-03-16T21:06:01.744Z,3.17
2023-03-16T21:08:29.932Z,3.60
2023-03-16T21:10:59.903Z,3.60
2023-03-16T21:13:33.278Z,4.13
2023-03-16T21:16:04.353Z,6.40
2023-03-16T21:18:32.970Z,3.93
2023-03-16T21:21:01.795Z,4.20
2023-03-16T21:23:30.076Z,3.93
2023-03-16T21:26:03.148Z,4.53
2023-03-16T21:28:35.248Z,3.97
2023-03-16T21:31:06.675Z,3.60
2023-03-16T21:33:37.707Z,4.57
2023-03-16T21:36:08.866Z,4.90
2023-03-16T21:38:37.124Z,4.40
2023-03-16T21:41:07.163Z,3.57
2023-03-16T21:43:35.553Z,3.50
2023-03-16T21:46:06.368Z,3.90
2023-03-16T21:48:38.816Z,3.70
2023-03-16T21:51:16.746Z,3.60
2023-03-16T21:53:44.994Z,3.80
2023-03-16T21:56:16.967Z,3.57
2023-03-16T21:58:46.341Z,3.60
2023-03-16T22:01:25.720Z,4.43
2023-03-16T22:03:58.323Z,4.27
2023-03-16T22:06:28.803Z,3.43
2023-03-16T22:08:57.714Z,3.50
2023-03-16T22:11:28.567Z,3.13
2023-03-16T22:13:58.926Z,2.90
2023-03-16T22:16:33.327Z,3.60
2023-03-16T22:19:01.925Z,3.73
2023-03-16T22:21:34.508Z,3.00
2023-03-16T22:24:05.291Z,2.50
2023-03-16T22:26:33.885Z,2.87
2023-03-16T22:29:03.275Z,3.27
2023-03-16T22:31:35.898Z,3.60
2023-03-16T22:34:05.671Z,3.47
2023-03-16T22:36:34.805Z,3.10
2023-03-16T22:39:08.122Z,3.43
2023-03-16T22:41:36.305Z,2.70
2023-03-16T22:44:05.063Z,3.00
2023-03-16T22:46:34.717Z,3.10
2023-03-16T22:49:02.889Z,2.60
2023-03-16T22:51:34.532Z,3.00
2023-03-16T22:54:06.540Z,2.93
2023-03-16T22:56:36.698Z,2.10
2023-03-16T22:59:08.114Z,2.67
2023-03-16T23:01:42.458Z,2.87
2023-03-16T23:04:16.325Z,2.67
2023-03-16T23:06:44.763Z,3.53
2023-03-16T23:09:15.419Z,2.80
2023-03-16T23:11:46.366Z,2.60
2023-03-16T23:14:17.456Z,2.60
2023-03-16T23:16:48.281Z,2.90
2023-03-16T23:19:25.650Z,3.00
2023-03-16T23:21:56.199Z,3.07
2023-03-16T23:24:24.424Z,2.20
2023-03-16T23:26:53.978Z,2.70
2023-03-16T23:29:23.594Z,3.40
2023-03-16T23:31:53.872Z,3.03
2023-03-16T23:34:24.535Z,2.77
2023-03-16T23:36:52.988Z,2.87
2023-03-16T23:39:21.403Z,3.27
2023-03-16T23:41:50.943Z,2.83
2023-03-16T23:44:22.604Z,2.63
2023-03-16T23:46:52.410Z,2.83
2023-03-16T23:49:23.415Z,3.13
2023-03-16T23:51:52.209Z,3.60
2023-03-16T23:54:24.040Z,3.30
2023-03-16T23:56:52.720Z,3.30
2023-03-16T23:59:23.295Z,3.63
